Time;durP1;ratioP1;P1;durP2;ratioP2;P2;SDS_P1;SDS_P2;PMS_P1;PMS_P2;Temp;Humidity;BMP_temperature;BMP_pressure;BME280_temperature;BME280_humidity;BME280_pressure;Samples;Min_cycle;Max_cycle;Signal;HPM_P1;HPM_P2
2023/02/10 00:00:25;;;;;;;26.92;20.70;;;0.40;99.90;;;;;;4971295;28;20386;-78
2023/02/10 00:02:50;;;;;;;27.10;21.38;;;0.40;99.90;;;;;;4971338;28;20453;-79
2023/02/10 00:05:16;;;;;;;29.35;21.23;;;0.50;99.90;;;;;;4971463;28;20411;-79
2023/02/10 00:07:42;;;;;;;25.98;20.63;;;0.50;99.90;;;;;;4971611;28;20390;-78
2023/02/10 00:10:08;;;;;;;27.27;21.15;;;0.60;99.90;;;;;;4970503;28;20806;-79
2023/02/10 00:12:37;;;;;;;25.70;21.00;;;0.70;99.90;;;;;;4971508;28;20746;-79
2023/02/10 00:15:04;;;;;;;26.70;21.33;;;0.80;99.90;;;;;;4970258;28;20418;-80
2023/02/10 00:17:31;;;;;;;28.25;21.45;;;0.80;99.90;;;;;;4970553;28;20391;-79
2023/02/10 00:19:57;;;;;;;29.15;21.95;;;0.90;99.90;;;;;;4967430;28;20885;-80
2023/02/10 00:22:23;;;;;;;28.23;21.50;;;0.80;99.90;;;;;;4970931;28;20422;-80
2023/02/10 00:24:49;;;;;;;28.17;21.65;;;0.90;99.90;;;;;;4960271;28;20406;-80
2023/02/10 00:27:14;;;;;;;29.38;21.80;;;0.90;99.90;;;;;;4970118;28;20838;-79
2023/02/10 00:29:40;;;;;;;31.35;22.50;;;1.00;99.90;;;;;;4952492;28;20379;-80
2023/02/10 00:32:06;;;;;;;30.10;22.98;;;1.10;99.90;;;;;;4953323;28;20389;-81
2023/02/10 00:34:32;;;;;;;31.90;22.50;;;1.10;99.90;;;;;;4952942;28;20418;-78
2023/02/10 00:36:57;;;;;;;28.88;22.85;;;1.10;99.90;;;;;;4948573;28;20406;-79
2023/02/10 00:39:23;;;;;;;30.30;22.13;;;1.10;99.90;;;;;;4969327;28;20405;-78
2023/02/10 00:41:49;;;;;;;30.10;23.20;;;1.00;99.90;;;;;;4970972;28;20406;-78
2023/02/10 00:44:15;;;;;;;30.00;22.65;;;0.90;99.90;;;;;;4969854;28;20477;-78
2023/02/10 00:46:41;;;;;;;29.45;22.58;;;0.80;99.90;;;;;;4972892;28;20438;-78
2023/02/10 00:49:06;;;;;;;31.75;23.77;;;0.60;99.90;;;;;;4954509;28;20465;-78
2023/02/10 00:51:32;;;;;;;31.90;24.13;;;0.50;99.90;;;;;;4970562;28;20414;-79
2023/02/10 00:53:58;;;;;;;33.00;24.70;;;0.30;99.90;;;;;;4966897;28;20414;-79
2023/02/10 00:58:59;;;;;;;31.27;24.15;;;0.30;99.90;;;;;;5026201;23;20431;-78
2023/02/10 01:01:24;;;;;;;34.40;24.83;;;0.10;99.90;;;;;;5008603;28;20407;-78
2023/02/10 01:03:50;;;;;;;30.23;23.93;;;-0.20;99.90;;;;;;5009048;28;21084;-78
2023/02/10 01:06:16;;;;;;;31.15;23.38;;;-0.40;99.90;;;;;;5000940;28;20402;-79
2023/02/10 01:08:42;;;;;;;33.92;24.52;;;-0.40;99.90;;;;;;4997872;28;20391;-79
2023/02/10 01:11:10;;;;;;;37.15;25.65;;;-0.50;99.90;;;;;;5005402;28;20896;-78
2023/02/10 01:13:37;;;;;;;33.35;25.55;;;-0.60;99.90;;;;;;5010593;28;20395;-79
2023/02/10 01:16:12;;;;;;;36.03;24.75;;;-0.60;99.90;;;;;;5010344;28;20399;-78
2023/02/10 01:18:40;;;;;;;33.10;25.73;;;-0.50;99.90;;;;;;5009408;28;20382;-79
2023/02/10 01:21:10;;;;;;;32.67;25.35;;;-0.50;99.90;;;;;;5009382;28;20394;-78
2023/02/10 01:23:36;;;;;;;34.22;25.42;;;-0.60;99.90;;;;;;5009945;28;20406;-78
2023/02/10 01:26:02;;;;;;;36.70;26.30;;;-0.50;99.90;;;;;;5010102;28;20380;-79
2023/02/10 01:28:28;;;;;;;33.63;25.73;;;-0.50;99.90;;;;;;5009695;28;20896;-80
2023/02/10 01:30:54;;;;;;;32.97;24.57;;;-0.40;99.90;;;;;;5008663;28;20417;-80
2023/02/10 01:33:20;;;;;;;34.83;26.07;;;-0.30;99.90;;;;;;5009927;28;20887;-79
2023/02/10 01:35:45;;;;;;;33.88;25.90;;;-0.40;99.90;;;;;;5009850;28;20403;-79
2023/02/10 01:38:11;;;;;;;33.33;24.40;;;-0.40;99.90;;;;;;5009166;28;21107;-79
2023/02/10 01:40:37;;;;;;;32.45;25.60;;;-0.30;99.90;;;;;;4990910;28;20445;-78
2023/02/10 01:43:13;;;;;;;36.53;27.25;;;-0.50;99.90;;;;;;5009561;28;20385;-79
2023/02/10 01:45:39;;;;;;;33.88;26.40;;;-0.50;99.90;;;;;;5009700;28;20390;-79
2023/02/10 01:48:07;;;;;;;37.35;27.75;;;-0.50;99.90;;;;;;5008305;28;20729;-78
2023/02/10 01:50:58;;;;;;;35.73;27.27;;;-0.50;99.90;;;;;;5009141;28;20474;-79
2023/02/10 01:53:25;;;;;;;38.72;28.95;;;-0.60;99.90;;;;;;5009078;28;20380;-79
2023/02/10 01:55:55;;;;;;;38.78;29.13;;;-0.70;99.90;;;;;;5008766;28;20391;-79
2023/02/10 01:58:26;;;;;;;41.30;30.30;;;-0.70;99.90;;;;;;5008194;28;20854;-78
2023/02/10 02:00:51;;;;;;;42.25;29.98;;;-0.70;99.90;;;;;;5009070;28;20382;-79
2023/02/10 02:03:17;;;;;;;40.00;29.17;;;-0.60;99.90;;;;;;5008966;28;20387;-79
2023/02/10 02:05:44;;;;;;;42.57;30.73;;;-0.50;99.90;;;;;;5009299;28;20405;-78
2023/02/10 02:08:16;;;;;;;44.30;30.87;;;-0.50;99.90;;;;;;5008489;28;20411;-79
2023/02/10 02:11:00;;;;;;;38.67;29.92;;;-0.50;99.90;;;;;;5008338;28;20391;-79
2023/02/10 02:13:41;;;;;;;41.22;30.48;;;-0.60;99.90;;;;;;5005632;28;20481;-79
2023/02/10 02:16:10;;;;;;;39.83;29.38;;;-0.50;99.90;;;;;;5004475;28;20407;-79
2023/02/10 02:18:51;;;;;;;41.43;29.50;;;-0.50;99.90;;;;;;5006303;28;20410;-80
2023/02/10 02:21:16;;;;;;;38.45;29.13;;;-0.50;99.90;;;;;;5006466;28;20414;-80
2023/02/10 02:23:48;;;;;;;44.72;31.45;;;-0.60;99.90;;;;;;5007468;28;20411;-79
2023/02/10 02:26:20;;;;;;;41.00;29.50;;;-0.60;99.90;;;;;;5005932;28;20435;-79
2023/02/10 02:29:24;;;;;;;39.10;29.42;;;-0.70;99.90;;;;;;5005947;28;20411;-79
2023/02/10 02:31:59;;;;;;;42.92;31.88;;;-0.80;99.90;;;;;;4946624;29;20412;-79
2023/02/10 02:34:51;;;;;;;44.03;31.77;;;-0.90;99.90;;;;;;5000029;28;20415;-79
2023/02/10 02:37:22;;;;;;;45.08;33.22;;;-0.80;99.90;;;;;;5007823;28;20410;-80
2023/02/10 02:39:52;;;;;;;48.60;35.25;;;-1.00;99.90;;;;;;5007827;28;20888;-79
2023/02/10 02:42:22;;;;;;;48.58;33.95;;;-0.80;99.90;;;;;;5009187;28;20426;-79
2023/02/10 02:44:58;;;;;;;47.33;34.80;;;-0.80;99.90;;;;;;5009379;28;20826;-79
2023/02/10 02:47:30;;;;;;;49.40;34.55;;;-0.80;99.90;;;;;;5007863;28;20386;-79
2023/02/10 02:50:22;;;;;;;47.60;34.17;;;-0.70;99.90;;;;;;5008606;28;20383;-78
2023/02/10 02:52:58;;;;;;;49.10;34.08;;;-0.70;99.90;;;;;;5009606;28;20820;-78
2023/02/10 02:55:33;;;;;;;49.77;34.80;;;-0.80;99.90;;;;;;5013267;28;20841;-79
2023/02/10 02:58:10;;;;;;;48.40;35.90;;;-0.60;99.90;;;;;;5011154;28;20407;-79
2023/02/10 03:00:37;;;;;;;50.15;36.45;;;-0.60;99.90;;;;;;5013007;28;20375;-79
2023/02/10 03:03:03;;;;;;;50.33;36.42;;;-0.50;99.90;;;;;;5013143;28;20379;-78
2023/02/10 03:05:31;;;;;;;55.03;37.63;;;-0.40;99.90;;;;;;5012179;28;20407;-78
2023/02/10 03:07:57;;;;;;;49.40;35.63;;;-0.20;99.90;;;;;;5011936;28;20393;-78
2023/02/10 03:10:24;;;;;;;47.63;35.05;;;0.00;99.90;;;;;;5012767;28;20399;-78
2023/02/10 03:12:53;;;;;;;48.17;35.20;;;0.10;99.90;;;;;;5012456;28;20470;-79
2023/02/10 03:15:19;;;;;;;51.50;36.20;;;0.10;99.90;;;;;;5012506;28;20375;-79
2023/02/10 03:17:45;;;;;;;52.58;35.97;;;0.10;99.90;;;;;;5011964;28;20391;-79
2023/02/10 03:20:11;;;;;;;54.67;37.38;;;0.20;99.90;;;;;;5012445;28;20385;-78
2023/02/10 03:22:36;;;;;;;54.50;37.63;;;0.40;99.90;;;;;;5011886;28;20467;-78
2023/02/10 03:25:03;;;;;;;53.43;38.97;;;0.50;99.90;;;;;;5012488;28;20406;-79
2023/02/10 03:27:29;;;;;;;55.38;38.92;;;0.40;99.90;;;;;;5011860;28;20544;-79
2023/02/10 03:29:54;;;;;;;53.13;38.97;;;0.50;99.90;;;;;;5010553;28;20491;-79
2023/02/10 03:32:20;;;;;;;58.15;40.15;;;0.40;99.90;;;;;;5011730;28;20386;-79
2023/02/10 03:34:46;;;;;;;59.33;41.53;;;0.40;99.90;;;;;;5010812;28;20391;-78
2023/02/10 03:37:12;;;;;;;57.53;41.40;;;0.50;99.90;;;;;;5011570;28;20518;-78
2023/02/10 03:39:38;;;;;;;60.13;42.67;;;0.60;99.90;;;;;;5010988;28;20406;-79
2023/02/10 03:42:04;;;;;;;56.83;40.83;;;0.60;99.90;;;;;;5011252;28;20485;-78
2023/02/10 03:44:29;;;;;;;58.90;41.70;;;0.70;99.90;;;;;;5009561;28;20426;-78
2023/02/10 03:46:55;;;;;;;59.27;42.63;;;0.60;99.90;;;;;;5010283;28;20371;-78
2023/02/10 03:49:21;;;;;;;59.95;41.83;;;0.70;99.90;;;;;;5011251;28;20387;-79
2023/02/10 03:51:47;;;;;;;57.42;42.55;;;0.80;99.90;;;;;;5011056;28;20523;-80
2023/02/10 03:54:12;;;;;;;64.63;45.38;;;0.80;99.90;;;;;;5010483;28;20432;-78
2023/02/10 03:56:38;;;;;;;62.40;45.03;;;0.90;99.90;;;;;;5010370;28;20507;-79
2023/02/10 03:59:05;;;;;;;67.00;45.65;;;0.90;99.90;;;;;;5011645;28;20390;-78
2023/02/10 04:01:31;;;;;;;77.25;45.38;;;1.00;99.90;;;;;;5011483;28;20402;-78
2023/02/10 04:03:56;;;;;;;64.85;46.13;;;1.00;99.90;;;;;;5009599;28;20905;-79
2023/02/10 04:06:22;;;;;;;61.33;44.90;;;0.90;99.90;;;;;;5010710;28;20438;-78
2023/02/10 04:08:48;;;;;;;62.50;44.03;;;1.00;99.90;;;;;;5008548;28;20989;-79
2023/02/10 04:11:14;;;;;;;61.17;44.88;;;1.00;99.90;;;;;;5011734;28;20375;-79
2023/02/10 04:13:40;;;;;;;59.73;44.00;;;1.00;99.90;;;;;;5011391;28;20924;-78
2023/02/10 04:16:12;;;;;;;63.47;44.38;;;1.00;99.90;;;;;;5010527;28;20415;-80
2023/02/10 04:18:39;;;;;;;66.28;45.35;;;1.10;99.90;;;;;;5011073;28;20510;-80
2023/02/10 04:21:06;;;;;;;64.53;45.63;;;1.10;99.90;;;;;;5011137;28;20448;-79
2023/02/10 04:23:32;;;;;;;63.63;45.97;;;1.10;99.90;;;;;;5011170;28;20393;-79
2023/02/10 04:25:59;;;;;;;65.28;44.85;;;1.00;99.90;;;;;;5011625;28;20438;-79
2023/02/10 04:28:25;;;;;;;68.70;46.28;;;1.00;99.90;;;;;;5010929;28;20403;-79
2023/02/10 04:30:55;;;;;;;66.43;47.45;;;1.20;99.90;;;;;;5021632;28;20389;-79
2023/02/10 04:33:21;;;;;;;65.20;46.87;;;1.10;99.90;;;;;;5019988;28;20385;-80
2023/02/10 04:35:48;;;;;;;69.78;47.97;;;1.30;99.90;;;;;;5013560;28;20391;-80
2023/02/10 04:38:14;;;;;;;69.47;47.75;;;1.20;99.90;;;;;;5010543;28;20893;-80
2023/02/10 04:40:39;;;;;;;70.32;48.67;;;1.30;99.90;;;;;;5011350;28;20379;-79
2023/02/10 04:43:06;;;;;;;70.93;49.97;;;1.30;99.90;;;;;;5011068;28;20415;-80
2023/02/10 04:45:32;;;;;;;73.20;50.60;;;1.30;99.90;;;;;;5009457;28;20407;-80
2023/02/10 04:47:57;;;;;;;74.07;50.88;;;1.20;99.90;;;;;;5008796;28;20391;-79
2023/02/10 04:50:23;;;;;;;71.60;50.45;;;1.30;99.90;;;;;;5008565;28;20375;-79
2023/02/10 04:52:49;;;;;;;71.03;48.97;;;1.30;99.90;;;;;;5011171;28;20375;-79
2023/02/10 04:55:14;;;;;;;73.90;51.00;;;1.20;99.90;;;;;;5009686;28;20430;-80
2023/02/10 04:57:40;;;;;;;72.27;49.77;;;1.20;99.90;;;;;;5008395;28;20391;-79
2023/02/10 05:00:07;;;;;;;78.95;52.40;;;1.10;99.90;;;;;;5007737;28;20410;-79
2023/02/10 05:02:32;;;;;;;78.70;52.47;;;1.00;99.90;;;;;;5007264;28;20490;-79
2023/02/10 05:04:58;;;;;;;79.55;52.47;;;1.00;99.90;;;;;;5011170;28;20466;-79
2023/02/10 05:07:24;;;;;;;79.80;54.17;;;0.90;99.90;;;;;;5006148;28;20450;-79
2023/02/10 05:09:49;;;;;;;78.88;53.95;;;0.90;99.90;;;;;;5009090;28;20413;-79
2023/02/10 05:12:15;;;;;;;86.85;56.58;;;0.80;99.90;;;;;;4991304;28;20505;-78
2023/02/10 05:14:41;;;;;;;87.20;56.73;;;0.70;99.90;;;;;;5009493;28;20931;-79
2023/02/10 05:17:06;;;;;;;86.10;56.90;;;0.70;99.90;;;;;;5009017;28;21009;-78
2023/02/10 05:19:32;;;;;;;83.03;56.93;;;0.70;99.90;;;;;;5010513;28;20383;-79
2023/02/10 05:21:58;;;;;;;87.93;59.17;;;0.60;99.90;;;;;;5009834;28;20380;-78
2023/02/10 05:24:23;;;;;;;86.38;57.88;;;0.60;99.90;;;;;;5010619;28;20411;-78
2023/02/10 05:26:49;;;;;;;88.68;61.28;;;0.60;99.90;;;;;;5008332;28;20465;-79
2023/02/10 05:29:15;;;;;;;92.10;61.47;;;0.40;99.90;;;;;;5010444;28;20427;-79
2023/02/10 05:31:40;;;;;;;94.88;63.17;;;0.40;99.90;;;;;;5009434;28;20385;-79
2023/02/10 05:34:06;;;;;;;95.73;63.07;;;0.40;99.90;;;;;;5009339;28;20446;-80
2023/02/10 05:36:32;;;;;;;93.27;62.10;;;0.40;99.90;;;;;;5010378;28;20379;-79
2023/02/10 05:41:42;;;;;;;93.97;62.33;;;0.40;99.90;;;;;;5010312;28;20414;-79
2023/02/10 05:44:08;;;;;;;96.70;62.07;;;0.40;99.90;;;;;;5009449;28;20897;-79
2023/02/10 05:46:33;;;;;;;95.82;61.65;;;0.40;99.90;;;;;;5010089;28;20395;-79
2023/02/10 05:48:59;;;;;;;94.43;63.50;;;0.40;99.90;;;;;;5009689;28;20383;-79
2023/02/10 05:51:25;;;;;;;95.57;64.22;;;0.30;99.90;;;;;;5007931;28;20494;-78
2023/02/10 05:53:50;;;;;;;96.68;63.10;;;0.30;99.90;;;;;;5010130;28;20881;-78
2023/02/10 05:56:16;;;;;;;102.80;65.28;;;0.30;99.90;;;;;;5009600;28;20885;-78
2023/02/10 05:58:42;;;;;;;98.95;63.40;;;0.30;99.90;;;;;;5007840;28;20893;-79
2023/02/10 06:01:09;;;;;;;96.60;62.17;;;0.20;99.90;;;;;;5006462;28;20908;-78
2023/02/10 06:03:35;;;;;;;96.35;64.70;;;0.20;99.90;;;;;;5007131;28;20402;-79
2023/02/10 06:06:00;;;;;;;104.38;66.22;;;0.20;99.90;;;;;;5010061;28;20375;-78
2023/02/10 06:08:26;;;;;;;95.55;62.80;;;0.20;99.90;;;;;;5008512;28;20394;-79
2023/02/10 06:10:53;;;;;;;102.47;65.72;;;0.30;99.90;;;;;;5009805;28;20446;-79
2023/02/10 06:13:19;;;;;;;99.22;64.50;;;0.40;99.90;;;;;;5010277;28;20379;-78
2023/02/10 06:15:45;;;;;;;95.15;63.47;;;0.30;99.90;;;;;;5006304;28;20425;-79
2023/02/10 06:18:10;;;;;;;102.55;63.80;;;0.30;99.90;;;;;;5009058;28;20383;-78
2023/02/10 06:20:36;;;;;;;101.80;63.97;;;0.30;99.90;;;;;;5007968;28;20395;-79
2023/02/10 06:23:01;;;;;;;95.15;63.95;;;0.30;99.90;;;;;;5008970;28;20386;-80
2023/02/10 06:25:27;;;;;;;99.67;65.03;;;0.30;99.90;;;;;;5008682;28;20482;-79
2023/02/10 06:27:53;;;;;;;97.28;63.47;;;0.30;99.90;;;;;;5008527;28;20380;-78
2023/02/10 06:30:19;;;;;;;97.47;63.42;;;0.20;99.90;;;;;;5006929;28;20402;-79
2023/02/10 06:32:45;;;;;;;90.95;61.60;;;0.40;99.90;;;;;;5005643;28;21014;-78
2023/02/10 06:35:11;;;;;;;93.72;61.30;;;0.50;99.90;;;;;;5008520;28;20383;-79
2023/02/10 06:37:36;;;;;;;98.03;62.63;;;0.40;99.90;;;;;;5007977;28;20446;-79
2023/02/10 06:40:06;;;;;;;97.97;62.97;;;0.40;99.90;;;;;;5007959;28;20753;-79
2023/02/10 06:42:32;;;;;;;99.70;61.70;;;0.30;99.90;;;;;;5008461;28;20387;-79
2023/02/10 06:44:58;;;;;;;91.07;62.33;;;0.40;99.90;;;;;;5007921;28;20402;-79
2023/02/10 06:47:24;;;;;;;91.95;61.30;;;0.50;99.90;;;;;;5008252;28;20863;-79
2023/02/10 06:49:49;;;;;;;94.97;61.92;;;0.50;99.90;;;;;;5007912;28;20410;-79
2023/02/10 06:52:15;;;;;;;95.32;62.42;;;0.50;99.90;;;;;;5008836;28;20406;-79
2023/02/10 06:54:41;;;;;;;91.07;60.03;;;0.60;99.90;;;;;;5008933;28;20379;-78
2023/02/10 06:57:07;;;;;;;89.90;58.10;;;0.70;99.90;;;;;;5007282;28;20418;-79
2023/02/10 06:59:33;;;;;;;88.40;57.92;;;0.70;99.90;;;;;;4991314;28;20387;-78
2023/02/10 07:02:01;;;;;;;85.03;56.88;;;0.70;99.90;;;;;;5006339;28;20406;-78
2023/02/10 07:04:28;;;;;;;87.23;56.97;;;0.70;99.90;;;;;;5006846;28;20538;-79
2023/02/10 07:06:54;;;;;;;80.40;56.20;;;0.80;99.90;;;;;;5007986;28;20414;-80
2023/02/10 07:09:20;;;;;;;82.85;54.30;;;0.80;99.90;;;;;;5009407;28;20383;-79
2023/02/10 07:11:45;;;;;;;83.13;54.72;;;0.80;99.90;;;;;;5008357;28;20726;-80
2023/02/10 07:14:12;;;;;;;84.40;54.53;;;0.80;99.90;;;;;;5007748;28;20881;-79
2023/02/10 07:16:38;;;;;;;84.10;55.42;;;0.80;99.90;;;;;;5008695;28;20379;-78
2023/02/10 07:19:03;;;;;;;78.53;54.23;;;0.90;99.90;;;;;;5003851;28;20469;-78
2023/02/10 07:21:29;;;;;;;78.80;53.73;;;1.10;99.90;;;;;;5008074;28;20570;-79
2023/02/10 07:23:55;;;;;;;76.30;51.45;;;1.20;99.90;;;;;;5008587;28;20418;-78
2023/02/10 07:26:20;;;;;;;77.68;50.97;;;1.30;99.90;;;;;;5008264;28;20380;-78
2023/02/10 07:28:46;;;;;;;74.63;49.88;;;1.30;99.90;;;;;;5008595;28;20933;-78
2023/02/10 07:31:12;;;;;;;77.68;49.85;;;1.40;99.90;;;;;;5006737;28;20462;-78
2023/02/10 07:33:39;;;;;;;75.50;48.30;;;1.30;99.90;;;;;;5008312;28;20376;-78
2023/02/10 07:36:05;;;;;;;72.45;49.72;;;1.50;99.90;;;;;;5008624;28;20487;-78
2023/02/10 07:38:31;;;;;;;75.88;50.42;;;1.50;99.90;;;;;;5008928;28;20411;-79
2023/02/10 07:40:57;;;;;;;70.32;48.90;;;1.50;99.90;;;;;;5012510;28;20386;-79
2023/02/10 07:43:23;;;;;;;71.78;48.40;;;1.50;99.90;;;;;;5012386;28;20383;-79
2023/02/10 07:45:50;;;;;;;68.50;46.95;;;1.70;99.90;;;;;;5009395;28;20928;-80
2023/02/10 07:48:16;;;;;;;67.38;46.05;;;1.70;99.90;;;;;;5011266;28;20429;-80
2023/02/10 07:50:42;;;;;;;65.60;45.40;;;1.90;99.90;;;;;;5011866;28;20453;-79
2023/02/10 07:53:08;;;;;;;70.68;46.53;;;1.90;99.90;;;;;;5009770;28;20403;-80
2023/02/10 07:55:36;;;;;;;66.38;45.90;;;1.90;99.90;;;;;;5011628;28;20386;-79
2023/02/10 07:58:02;;;;;;;67.78;46.58;;;2.20;99.90;;;;;;5011588;28;20413;-79
2023/02/10 08:00:28;;;;;;;62.95;45.00;;;2.20;99.90;;;;;;5009071;28;20495;-79
2023/02/10 08:02:54;;;;;;;60.47;43.00;;;2.10;99.90;;;;;;5011314;28;20410;-79
2023/02/10 08:05:20;;;;;;;64.95;44.78;;;2.50;99.90;;;;;;5010232;28;20418;-78
2023/02/10 08:07:45;;;;;;;65.18;44.30;;;2.40;99.90;;;;;;5009500;28;20720;-79
2023/02/10 08:10:11;;;;;;;62.30;43.80;;;2.50;99.90;;;;;;5009648;28;20473;-80
2023/02/10 08:12:37;;;;;;;64.47;44.28;;;2.60;99.90;;;;;;5011333;28;20382;-79
2023/02/10 08:15:02;;;;;;;61.87;42.73;;;2.60;99.90;;;;;;5011078;28;20379;-78
2023/02/10 08:17:28;;;;;;;61.93;43.73;;;2.70;99.90;;;;;;5008211;28;20411;-80
2023/02/10 08:19:54;;;;;;;60.80;41.73;;;2.80;99.90;;;;;;5011613;28;20718;-79
2023/02/10 08:22:20;;;;;;;61.60;42.20;;;2.90;99.90;;;;;;5014131;28;20570;-79
2023/02/10 08:24:45;;;;;;;57.72;42.03;;;2.90;99.90;;;;;;5009638;28;20803;-79
2023/02/10 08:27:12;;;;;;;61.72;42.63;;;3.00;99.90;;;;;;5009383;28;20482;-80
2023/02/10 08:29:37;;;;;;;62.67;42.35;;;3.10;99.90;;;;;;5008852;28;20442;-80
2023/02/10 08:32:03;;;;;;;57.90;41.30;;;3.10;99.90;;;;;;5006305;28;20411;-80
2023/02/10 08:34:30;;;;;;;57.22;41.08;;;3.30;99.90;;;;;;5007852;28;20865;-80
2023/02/10 08:36:56;;;;;;;58.78;41.53;;;3.30;99.90;;;;;;5009979;28;20846;-80
2023/02/10 08:39:22;;;;;;;57.87;41.37;;;3.30;99.90;;;;;;5011030;28;20381;-80
2023/02/10 08:41:47;;;;;;;60.00;40.17;;;3.60;99.90;;;;;;5010876;28;20407;-80
2023/02/10 08:44:13;;;;;;;64.68;42.50;;;3.70;99.90;;;;;;5009597;28;20457;-81
2023/02/10 08:46:39;;;;;;;53.80;38.70;;;3.70;99.90;;;;;;5008414;28;20418;-80
2023/02/10 08:49:05;;;;;;;59.58;40.42;;;4.00;99.90;;;;;;5009575;28;20403;-80
2023/02/10 08:51:32;;;;;;;54.45;39.33;;;4.10;99.90;;;;;;5009794;28;20401;-79
2023/02/10 08:54:00;;;;;;;55.60;38.15;;;4.20;99.90;;;;;;5010347;28;20438;-80
2023/02/10 08:56:26;;;;;;;57.45;39.97;;;4.40;99.90;;;;;;5011372;28;20372;-80
2023/02/10 08:58:52;;;;;;;61.88;42.03;;;4.20;99.90;;;;;;5010371;28;20890;-80
2023/02/10 09:01:21;;;;;;;63.47;41.17;;;3.80;99.90;;;;;;5009391;28;20719;-79
2023/02/10 09:03:47;;;;;;;61.30;42.83;;;3.70;99.90;;;;;;5011232;28;20461;-80
2023/02/10 09:06:21;;;;;;;63.03;42.55;;;3.70;99.90;;;;;;5005657;28;20426;-80
2023/02/10 09:08:47;;;;;;;63.80;42.97;;;3.70;99.90;;;;;;5008767;28;20835;-81
2023/02/10 09:11:14;;;;;;;60.80;42.05;;;3.70;99.90;;;;;;5010431;28;20383;-80
2023/02/10 09:13:40;;;;;;;65.17;39.73;;;3.90;99.90;;;;;;5006696;28;20450;-79
2023/02/10 09:16:06;;;;;;;59.37;41.33;;;4.20;99.90;;;;;;5008723;28;20925;-80
2023/02/10 09:18:32;;;;;;;56.33;38.97;;;4.30;99.90;;;;;;5008895;28;20496;-80
2023/02/10 09:20:59;;;;;;;58.53;39.70;;;4.30;99.90;;;;;;5010002;28;20399;-80
2023/02/10 09:23:27;;;;;;;56.10;38.20;;;4.40;99.90;;;;;;5007326;28;20426;-80
2023/02/10 09:25:54;;;;;;;53.63;36.97;;;4.60;99.90;;;;;;5009566;28;20403;-80
2023/02/10 09:28:21;;;;;;;54.97;37.42;;;4.90;99.90;;;;;;5005481;28;20419;-79
2023/02/10 09:30:47;;;;;;;50.28;35.92;;;4.90;99.90;;;;;;5001873;28;20385;-80
2023/02/10 09:33:13;;;;;;;56.43;36.83;;;5.10;99.90;;;;;;4989266;28;20381;-81
2023/02/10 09:35:40;;;;;;;54.95;35.83;;;5.30;99.90;;;;;;4997526;28;20862;-80
2023/02/10 09:38:07;;;;;;;50.78;35.67;;;5.40;99.90;;;;;;5008438;28;20727;-79
2023/02/10 09:40:42;;;;;;;52.13;35.28;;;5.30;99.90;;;;;;5011545;28;20732;-80
2023/02/10 09:43:43;;;;;;;54.55;35.75;;;5.20;99.90;;;;;;5007192;28;20405;-80
2023/02/10 09:46:15;;;;;;;50.78;34.10;;;5.40;99.90;;;;;;5007513;28;20506;-79
2023/02/10 09:48:58;;;;;;;54.88;35.88;;;5.50;99.90;;;;;;5009121;28;20391;-79
2023/02/10 09:51:43;;;;;;;50.20;34.25;;;5.50;99.90;;;;;;5016301;28;20391;-79
2023/02/10 09:54:13;;;;;;;52.00;34.97;;;5.50;99.90;;;;;;5001407;28;21149;-80
2023/02/10 09:56:39;;;;;;;54.90;36.30;;;5.30;99.90;;;;;;5005729;28;20880;-80
2023/02/10 09:59:10;;;;;;;53.83;35.83;;;5.10;99.90;;;;;;5020371;28;20420;-79
2023/02/10 10:01:51;;;;;;;52.50;34.78;;;5.00;99.90;;;;;;5012520;28;20470;-79
2023/02/10 10:04:19;;;;;;;52.10;33.70;;;5.00;99.90;;;;;;5009293;28;20802;-80
2023/02/10 10:06:50;;;;;;;54.75;35.10;;;5.10;99.90;;;;;;5008721;28;20387;-80
2023/02/10 10:09:41;;;;;;;49.88;33.95;;;5.10;99.90;;;;;;5010917;28;20398;-80
2023/02/10 10:12:16;;;;;;;52.90;34.25;;;5.20;99.90;;;;;;5024693;28;20389;-80
2023/02/10 10:14:46;;;;;;;51.67;33.72;;;5.40;99.90;;;;;;4988243;28;20389;-80
2023/02/10 10:17:49;;;;;;;53.80;35.25;;;5.30;99.90;;;;;;5011245;28;20399;-79
2023/02/10 10:20:17;;;;;;;50.17;34.05;;;5.40;99.90;;;;;;4999887;28;20444;-80
2023/02/10 10:23:15;;;;;;;50.60;33.50;;;5.50;99.90;;;;;;5008426;28;20494;-80
2023/02/10 10:26:16;;;;;;;53.20;34.65;;;5.50;99.90;;;;;;5020605;28;20822;-79
2023/02/10 10:29:20;;;;;;;52.25;34.78;;;5.30;99.90;;;;;;5004460;28;20383;-79
2023/02/10 10:31:48;;;;;;;50.88;34.58;;;5.40;99.90;;;;;;5018822;28;20525;-80
2023/02/10 10:34:18;;;;;;;55.67;36.15;;;5.10;99.90;;;;;;4995576;28;20387;-79
2023/02/10 10:36:46;;;;;;;56.10;34.67;;;5.00;99.90;;;;;;5008289;28;20383;-79
2023/02/10 10:39:23;;;;;;;52.97;35.88;;;4.90;99.90;;;;;;5008977;28;20876;-80
2023/02/10 10:41:49;;;;;;;52.13;35.28;;;5.10;99.90;;;;;;5030291;28;20390;-80
2023/02/10 10:44:19;;;;;;;52.45;34.38;;;5.30;99.90;;;;;;5027265;28;20523;-80
2023/02/10 10:46:50;;;;;;;47.47;34.30;;;5.10;99.90;;;;;;5028565;28;20998;-80
2023/02/10 10:49:16;;;;;;;44.95;31.75;;;5.40;99.90;;;;;;5028876;28;20384;-80
2023/02/10 10:51:42;;;;;;;46.33;31.35;;;5.90;99.90;;;;;;5029088;28;20370;-80
2023/02/10 10:54:18;;;;;;;44.08;31.02;;;6.40;99.90;;;;;;5029251;28;20398;-80
2023/02/10 10:56:54;;;;;;;46.92;31.95;;;6.40;99.90;;;;;;5029564;28;20381;-81
2023/02/10 10:59:41;;;;;;;47.40;31.02;;;6.40;99.90;;;;;;5030368;28;20389;-80
2023/02/10 11:02:13;;;;;;;53.40;31.08;;;6.70;99.90;;;;;;5030558;28;20386;-80
2023/02/10 11:04:42;;;;;;;50.75;33.25;;;6.80;99.90;;;;;;5023411;28;20406;-80
2023/02/10 11:07:11;;;;;;;50.72;33.80;;;6.70;99.90;;;;;;5009998;28;20424;-80
2023/02/10 11:09:48;;;;;;;50.88;33.35;;;6.50;99.90;;;;;;5008372;28;20399;-80
2023/02/10 11:12:24;;;;;;;53.15;33.63;;;6.30;99.90;;;;;;5009720;28;20382;-79
2023/02/10 11:14:53;;;;;;;49.00;33.60;;;6.00;99.90;;;;;;5013074;28;20445;-79
2023/02/10 11:17:35;;;;;;;50.28;32.45;;;6.00;99.90;;;;;;5013896;28;20743;-80
2023/02/10 11:20:05;;;;;;;52.70;34.70;;;6.20;99.90;;;;;;5013574;28;20379;-80
2023/02/10 11:22:30;;;;;;;54.30;34.97;;;6.30;99.90;;;;;;5012124;28;20379;-80
2023/02/10 11:25:00;;;;;;;51.55;34.05;;;6.20;99.90;;;;;;5013388;28;20409;-80
2023/02/10 11:27:26;;;;;;;49.47;33.58;;;6.30;99.90;;;;;;5012587;28;20861;-79
2023/02/10 11:29:56;;;;;;;49.35;34.28;;;6.40;99.90;;;;;;5013854;28;20450;-79
2023/02/10 11:32:25;;;;;;;55.03;34.53;;;6.30;99.90;;;;;;5013869;28;20433;-79
2023/02/10 11:34:55;;;;;;;50.87;35.03;;;6.10;99.90;;;;;;5013931;28;20407;-79
2023/02/10 11:37:27;;;;;;;50.45;35.38;;;6.00;99.90;;;;;;5013120;28;20790;-78
2023/02/10 11:39:54;;;;;;;55.23;35.60;;;6.20;99.90;;;;;;5012965;28;20377;-78
2023/02/10 11:42:36;;;;;;;50.45;34.63;;;6.30;99.90;;;;;;5029439;28;20412;-79
2023/02/10 11:45:10;;;;;;;53.13;35.00;;;6.30;99.90;;;;;;5032422;28;20389;-77
2023/02/10 11:47:37;;;;;;;48.53;34.88;;;6.20;99.90;;;;;;5031629;28;20374;-77
2023/02/10 11:50:18;;;;;;;52.95;34.97;;;6.10;99.90;;;;;;5032600;28;20461;-77
2023/02/10 11:52:44;;;;;;;53.95;35.53;;;6.10;99.90;;;;;;5030022;28;20385;-78
2023/02/10 11:55:15;;;;;;;52.97;35.03;;;6.20;99.90;;;;;;5030867;28;20368;-78
2023/02/10 12:01:46;;;;;;;53.55;34.70;;;6.50;99.90;;;;;;5032479;28;20464;-77
2023/02/10 12:04:15;;;;;;;48.45;32.92;;;6.80;99.90;;;;;;5031728;28;20396;-78
2023/02/10 12:07:14;;;;;;;51.05;32.42;;;6.80;99.90;;;;;;5012749;28;20407;-78
2023/02/10 12:09:54;;;;;;;45.65;31.08;;;7.00;99.90;;;;;;5026666;28;20693;-79
2023/02/10 12:12:42;;;;;;;49.47;32.60;;;7.00;99.90;;;;;;5030240;28;20381;-78
2023/02/10 12:15:29;;;;;;;45.50;31.90;;;7.00;99.90;;;;;;5030397;28;20369;-76
2023/02/10 12:18:04;;;;;;;47.97;31.25;;;7.00;99.90;;;;;;5030692;28;20463;-78
2023/02/10 12:21:05;;;;;;;49.58;32.45;;;6.90;99.90;;;;;;5030888;28;20395;-78
2023/02/10 12:23:43;;;;;;;46.75;31.77;;;6.80;99.90;;;;;;5029403;28;20468;-77
2023/02/10 12:26:29;;;;;;;47.53;31.50;;;6.80;99.90;;;;;;5030862;28;20366;-78
2023/02/10 12:28:58;;;;;;;48.03;31.92;;;6.90;99.90;;;;;;5029988;28;20512;-78
2023/02/10 12:32:03;;;;;;;47.58;31.35;;;6.70;99.90;;;;;;5032366;28;20369;-78
2023/02/10 12:34:38;;;;;;;56.42;33.58;;;6.50;99.90;;;;;;5032223;28;20373;-78
2023/02/10 12:37:06;;;;;;;46.38;31.88;;;6.60;99.90;;;;;;5031240;28;21326;-78
2023/02/10 12:39:37;;;;;;;45.03;29.73;;;6.60;99.90;;;;;;5031757;28;20393;-77
2023/02/10 12:42:44;;;;;;;43.33;29.02;;;6.60;99.90;;;;;;5027345;28;20361;-78
2023/02/10 12:45:27;;;;;;;40.78;27.88;;;6.50;99.90;;;;;;4990823;28;20497;-77
2023/02/10 12:48:20;;;;;;;41.22;27.40;;;6.50;99.90;;;;;;5011706;28;20718;-79
2023/02/10 12:50:48;;;;;;;36.23;24.67;;;6.50;99.90;;;;;;5012027;28;20738;-78
2023/02/10 12:53:20;;;;;;;37.00;23.42;;;6.60;99.90;;;;;;5011145;28;20857;-78
2023/02/10 12:55:53;;;;;;;35.03;21.38;;;6.80;99.90;;;;;;5011990;28;20422;-78